Shanghai Express — DPCK — position and weather

sailwx.info

Track history (hours):
 
Tides and Currents Weather Stations Pressure Air Temp Water Temp Dewpoint Dewpoint Depression Visibility Wind Speed Wind Dir Waves Ship Positions

Shanghai Express

Last reported at 2016-Jun-28 07:04 UTC. Time now 2016-Jun-28 11:39 UTC.
Position N 34°33' W 075°36'.

Length 320.6 m; beam 42.8 m; draft 14.5 m.

Type: Ship. MMSI: 211367460.

Date/timePositionNaut miles runAvg speedWind from/ knotsBaromVisibWave heightAir tempDewpointWater temp
2016-Jun-28 07:04N 34°33' W 075°36'1619.7
2016-Jun-28 06:16N 34°21' W 075°49'3720.2
2016-Jun-28 04:25N 33°53' W 076°19'22017.1
2016-Jun-27 15:32N 32°00' W 080°03'1616.0
2016-Jun-27 14:33N 31°59' W 080°22'1414.0
2016-Jun-27 13:33N 31°57' W 080°38'1212.1
2016-Jun-27 12:33N 32°02' W 080°51'1010.0
2016-Jun-27 11:33N 32°05' W 081°02'5 5.4
2016-Jun-27 10:33N 32°07' W 081°08'0 0.0
2016-Jun-27 09:33N 32°07' W 081°08'0 0.0
2016-Jun-27 08:33N 32°07' W 081°08'0 0.0
2016-Jun-27 07:33N 32°07' W 081°08'0 0.0
2016-Jun-27 06:32N 32°07' W 081°08'0 0.0
2016-Jun-27 05:32N 32°07' W 081°08'0 0.0
2016-Jun-27 04:31N 32°07' W 081°08'0 0.0
2016-Jun-27 03:25N 32°07' W 081°08'0 0.0
2016-Jun-27 02:24N 32°08' W 081°08'0 0.0
2016-Jun-27 01:30N 32°07' W 081°08'0 0.0
2016-Jun-27 00:30N 32°07' W 081°08'0 0.0
2016-Jun-26 23:29N 32°08' W 081°08'0 0.0
2016-Jun-26 22:29N 32°07' W 081°08'0 0.0
2016-Jun-26 21:28N 32°07' W 081°08'0 0.0
2016-Jun-26 20:28N 32°07' W 081°08'0 0.0
2016-Jun-26 19:28N 32°07' W 081°08'0 0.0
2016-Jun-26 18:33N 32°08' W 081°08'0 0.0
2016-Jun-26 17:33N 32°07' W 081°08'0 0.0
2016-Jun-26 16:33N 32°07' W 081°08'0 0.0
2016-Jun-26 15:33N 32°07' W 081°08'0 0.3
2016-Jun-26 14:33N 32°07' W 081°08'6 6.1
2016-Jun-26 13:33N 32°06' W 081°01'1110.8
2016-Jun-26 12:33N 32°02' W 080°49'1111.3
2016-Jun-26 11:34N 31°57' W 080°37'1413.7
2016-Jun-26 10:33N 31°59' W 080°21'25616.6
2016-Jun-25 19:08N 34°20' W 076°06'33417.6
2016-Jun-25 00:07N 39°36' W 073°52'1118.6
2016-Jun-24 23:30N 39°48' W 073°51'3817.8
2016-Jun-24 21:21N 40°26' W 073°49'1114.0
2016-Jun-24 20:33N 40°32' W 074°01'9 8.9
2016-Jun-24 19:33N 40°39' W 074°08'2 1.8
2016-Jun-24 18:29N 40°41' W 074°08'0 0.0
2016-Jun-24 17:31N 40°41' W 074°08'0 0.0
2016-Jun-24 16:31N 40°41' W 074°08'0 0.0
2016-Jun-24 15:33N 40°41' W 074°08'0 0.0
2016-Jun-24 14:30N 40°41' W 074°08'0 0.0
2016-Jun-24 13:33N 40°41' W 074°08'0 0.0
2016-Jun-24 12:32N 40°41' W 074°08'0 0.0
2016-Jun-24 11:32N 40°41' W 074°08'0 0.0
2016-Jun-24 10:28N 40°41' W 074°08'0 0.0
2016-Jun-24 09:31N 40°41' W 074°08'0 0.0
2016-Jun-24 08:33N 40°41' W 074°08'0 0.0
2016-Jun-24 07:33N 40°41' W 074°08'0 0.0
2016-Jun-24 04:32N 40°41' W 074°08'0 0.0
2016-Jun-24 03:31N 40°41' W 074°08'0 0.0
2016-Jun-24 02:22N 40°41' W 074°08'0 0.0
2016-Jun-24 01:32N 40°41' W 074°08'0 0.0
2016-Jun-24 00:32N 40°41' W 074°08'0 0.0
2016-Jun-23 23:31N 40°41' W 074°08'0 0.0
2016-Jun-23 22:31N 40°41' W 074°08'0 0.0
2016-Jun-23 21:31N 40°41' W 074°08'0 0.0
2016-Jun-23 20:24N 40°41' W 074°08'0 0.0
2016-Jun-23 19:33N 40°41' W 074°08'0 0.0
2016-Jun-23 18:29N 40°41' W 074°08'0 0.0
2016-Jun-23 17:32N 40°41' W 074°08'0 0.0
2016-Jun-23 16:31N 40°41' W 074°08'2 2.0
2016-Jun-23 15:33N 40°39' W 074°08'6 5.9
2016-Jun-23 14:33N 40°35' W 074°02'1211.7
2016-Jun-23 13:33N 40°28' W 073°50'7 7.5
2016-Jun-23 12:33N 40°28' W 073°40'1515.3
2016-Jun-23 11:33N 40°29' W 073°20'  
Track history (hours):
 
Tides and Currents Weather Stations Pressure Air Temp Water Temp Dewpoint Dewpoint Depression Visibility Wind Speed Wind Dir Waves Ship Positions

Shanghai Express

Last reported at 2016-Jun-28 07:04 UTC. Time now 2016-Jun-28 11:39 UTC.
Position N 34°33' W 075°36'.

Length 320.6 m; beam 42.8 m; draft 14.5 m.

Type: Ship. MMSI: 211367460.

Date/timePositionNaut miles runAvg speedWind from/ knotsBaromVisibWave heightAir tempDewpointWater temp
2016-Jun-28 07:04N 34°33' W 075°36'1619.7
2016-Jun-28 06:16N 34°21' W 075°49'3720.2
2016-Jun-28 04:25N 33°53' W 076°19'22017.1
2016-Jun-27 15:32N 32°00' W 080°03'1616.0
2016-Jun-27 14:33N 31°59' W 080°22'1414.0
2016-Jun-27 13:33N 31°57' W 080°38'1212.1
2016-Jun-27 12:33N 32°02' W 080°51'1010.0
2016-Jun-27 11:33N 32°05' W 081°02'5 5.4
2016-Jun-27 10:33N 32°07' W 081°08'0 0.0
2016-Jun-27 09:33N 32°07' W 081°08'0 0.0
2016-Jun-27 08:33N 32°07' W 081°08'0 0.0
2016-Jun-27 07:33N 32°07' W 081°08'0 0.0
2016-Jun-27 06:32N 32°07' W 081°08'0 0.0
2016-Jun-27 05:32N 32°07' W 081°08'0 0.0
2016-Jun-27 04:31N 32°07' W 081°08'0 0.0
2016-Jun-27 03:25N 32°07' W 081°08'0 0.0
2016-Jun-27 02:24N 32°08' W 081°08'0 0.0
2016-Jun-27 01:30N 32°07' W 081°08'0 0.0
2016-Jun-27 00:30N 32°07' W 081°08'0 0.0
2016-Jun-26 23:29N 32°08' W 081°08'0 0.0
2016-Jun-26 22:29N 32°07' W 081°08'0 0.0
2016-Jun-26 21:28N 32°07' W 081°08'0 0.0
2016-Jun-26 20:28N 32°07' W 081°08'0 0.0
2016-Jun-26 19:28N 32°07' W 081°08'0 0.0
2016-Jun-26 18:33N 32°08' W 081°08'0 0.0
2016-Jun-26 17:33N 32°07' W 081°08'0 0.0
2016-Jun-26 16:33N 32°07' W 081°08'0 0.0
2016-Jun-26 15:33N 32°07' W 081°08'0 0.3
2016-Jun-26 14:33N 32°07' W 081°08'6 6.1
2016-Jun-26 13:33N 32°06' W 081°01'1110.8
2016-Jun-26 12:33N 32°02' W 080°49'1111.3
2016-Jun-26 11:34N 31°57' W 080°37'1413.7
2016-Jun-26 10:33N 31°59' W 080°21'25616.6
2016-Jun-25 19:08N 34°20' W 076°06'33417.6
2016-Jun-25 00:07N 39°36' W 073°52'1118.6
2016-Jun-24 23:30N 39°48' W 073°51'3817.8
2016-Jun-24 21:21N 40°26' W 073°49'1114.0
2016-Jun-24 20:33N 40°32' W 074°01'9 8.9
2016-Jun-24 19:33N 40°39' W 074°08'2 1.8
2016-Jun-24 18:29N 40°41' W 074°08'0 0.0
2016-Jun-24 17:31N 40°41' W 074°08'0 0.0
2016-Jun-24 16:31N 40°41' W 074°08'0 0.0
2016-Jun-24 15:33N 40°41' W 074°08'0 0.0
2016-Jun-24 14:30N 40°41' W 074°08'0 0.0
2016-Jun-24 13:33N 40°41' W 074°08'0 0.0
2016-Jun-24 12:32N 40°41' W 074°08'0 0.0
2016-Jun-24 11:32N 40°41' W 074°08'0 0.0
2016-Jun-24 10:28N 40°41' W 074°08'0 0.0
2016-Jun-24 09:31N 40°41' W 074°08'0 0.0
2016-Jun-24 08:33N 40°41' W 074°08'0 0.0
2016-Jun-24 07:33N 40°41' W 074°08'0 0.0
2016-Jun-24 04:32N 40°41' W 074°08'0 0.0
2016-Jun-24 03:31N 40°41' W 074°08'0 0.0
2016-Jun-24 02:22N 40°41' W 074°08'0 0.0
2016-Jun-24 01:32N 40°41' W 074°08'0 0.0
2016-Jun-24 00:32N 40°41' W 074°08'0 0.0
2016-Jun-23 23:31N 40°41' W 074°08'0 0.0
2016-Jun-23 22:31N 40°41' W 074°08'0 0.0
2016-Jun-23 21:31N 40°41' W 074°08'0 0.0
2016-Jun-23 20:24N 40°41' W 074°08'0 0.0
2016-Jun-23 19:33N 40°41' W 074°08'0 0.0
2016-Jun-23 18:29N 40°41' W 074°08'0 0.0
2016-Jun-23 17:32N 40°41' W 074°08'0 0.0
2016-Jun-23 16:31N 40°41' W 074°08'2 2.0
2016-Jun-23 15:33N 40°39' W 074°08'6 5.9
2016-Jun-23 14:33N 40°35' W 074°02'1211.7
2016-Jun-23 13:33N 40°28' W 073°50'7 7.5
2016-Jun-23 12:33N 40°28' W 073°40'1515.3
2016-Jun-23 11:33N 40°29' W 073°20'  

Dump ship's entire track history